createdAt,value
2023-04-29T00:00:54.706Z,12.19
2023-04-29T00:03:22.688Z,12.19
2023-04-29T00:05:50.849Z,12.20
2023-04-29T00:08:18.530Z,12.15
2023-04-29T00:10:46.125Z,12.22
2023-04-29T00:13:14.203Z,12.21
2023-04-29T00:15:43.101Z,12.20
2023-04-29T00:18:12.199Z,12.18
2023-04-29T00:20:40.955Z,12.11
2023-04-29T00:23:08.702Z,12.15
2023-04-29T00:25:38.272Z,12.21
2023-04-29T00:28:06.489Z,12.19
2023-04-29T00:30:34.670Z,12.13
2023-04-29T00:33:02.510Z,12.10
2023-04-29T00:35:31.777Z,12.05
2023-04-29T00:37:59.483Z,11.97
2023-04-29T00:40:28.733Z,11.98
2023-04-29T00:42:57.106Z,11.98
2023-04-29T00:45:25.026Z,11.97
2023-04-29T00:47:52.984Z,11.96
2023-04-29T00:50:20.947Z,12.00
2023-04-29T00:52:50.358Z,11.93
2023-04-29T00:55:18.656Z,11.94
2023-04-29T00:57:48.217Z,11.99
2023-04-29T01:00:17.203Z,11.93
2023-04-29T01:02:46.014Z,11.89
2023-04-29T01:05:15.027Z,11.84
2023-04-29T01:07:49.898Z,11.85
2023-04-29T01:10:27.941Z,11.82
2023-04-29T01:13:02.030Z,11.82
2023-04-29T01:15:33.934Z,11.86
2023-04-29T01:18:06.821Z,11.82
2023-04-29T01:20:37.857Z,11.81
2023-04-29T01:23:06.264Z,11.77
2023-04-29T01:25:35.557Z,11.73
2023-04-29T01:28:15.657Z,11.72
2023-04-29T01:30:51.456Z,11.69
2023-04-29T01:33:29.813Z,11.59
2023-04-29T01:36:09.129Z,11.63
2023-04-29T01:38:43.152Z,11.66
2023-04-29T01:41:17.170Z,11.60
2023-04-29T01:43:49.480Z,11.62
2023-04-29T01:46:19.584Z,11.64
2023-04-29T01:48:47.641Z,11.57
2023-04-29T01:51:15.307Z,11.66
2023-04-29T01:53:43.278Z,11.67
2023-04-29T01:56:10.968Z,11.60
2023-04-29T01:58:39.964Z,11.59
2023-04-29T02:01:10.288Z,11.55
2023-04-29T02:03:38.106Z,11.50
2023-04-29T02:06:07.250Z,11.56
2023-04-29T02:08:34.935Z,11.52
2023-04-29T02:11:02.691Z,11.54
2023-04-29T02:13:30.348Z,11.61
2023-04-29T02:15:59.355Z,11.58
2023-04-29T02:18:27.018Z,11.54
2023-04-29T02:21:01.653Z,11.49
2023-04-29T02:23:29.494Z,11.41
2023-04-29T02:25:57.304Z,11.34
2023-04-29T02:28:25.141Z,11.35
2023-04-29T02:30:52.892Z,11.30
2023-04-29T02:33:21.948Z,11.35
2023-04-29T02:35:49.713Z,11.25
2023-04-29T02:38:17.577Z,11.23
2023-04-29T02:40:46.245Z,11.17
2023-04-29T02:43:14.452Z,11.08
2023-04-29T02:45:42.162Z,11.10
2023-04-29T02:48:09.839Z,11.06
2023-04-29T02:50:38.866Z,11.02
2023-04-29T02:53:06.470Z,11.02
2023-04-29T02:55:34.355Z,10.99
2023-04-29T02:58:02.076Z,10.93
2023-04-29T03:00:29.781Z,10.91
2023-04-29T03:02:57.651Z,10.74
2023-04-29T03:05:25.611Z,10.81
2023-04-29T03:07:54.632Z,10.83
2023-04-29T03:10:22.383Z,10.75
2023-04-29T03:12:50.063Z,10.68
2023-04-29T03:15:18.159Z,10.73
2023-04-29T03:17:46.523Z,10.69
2023-04-29T03:20:14.286Z,10.67
2023-04-29T03:22:42.297Z,10.75
2023-04-29T03:25:11.597Z,10.69
2023-04-29T03:27:39.325Z,10.69
2023-04-29T03:30:08.892Z,10.55
2023-04-29T03:32:36.522Z,10.55
2023-04-29T03:35:05.300Z,10.45
2023-04-29T03:37:33.013Z,10.43
2023-04-29T03:40:00.673Z,10.49
2023-04-29T03:42:29.717Z,10.46
2023-04-29T03:44:57.549Z,10.46
2023-04-29T03:47:25.412Z,10.54
2023-04-29T03:49:53.706Z,10.46
2023-04-29T03:52:21.719Z,10.40
2023-04-29T03:54:49.496Z,10.46
2023-04-29T03:57:17.259Z,10.36
2023-04-29T03:59:50.176Z,10.36
2023-04-29T04:02:18.345Z,10.17
2023-04-29T04:04:46.331Z,10.35
2023-04-29T04:07:14.368Z,10.49
2023-04-29T04:09:42.207Z,10.49
2023-04-29T04:12:10.033Z,10.48
2023-04-29T04:14:37.991Z,10.43
2023-04-29T04:17:07.625Z,10.48
2023-04-29T04:19:35.616Z,10.50
2023-04-29T04:22:04.777Z,10.50
2023-04-29T04:24:32.553Z,10.62
2023-04-29T04:27:01.055Z,10.67
2023-04-29T04:29:28.804Z,10.58
2023-04-29T04:31:56.814Z,10.65
2023-04-29T04:34:26.340Z,10.64
2023-04-29T04:36:54.129Z,10.63
2023-04-29T04:39:21.954Z,10.54
2023-04-29T04:41:49.802Z,10.60
2023-04-29T04:44:17.515Z,10.63
2023-04-29T04:46:45.254Z,10.59
2023-04-29T04:49:13.010Z,10.57
2023-04-29T04:51:45.202Z,10.59
2023-04-29T04:54:13.569Z,10.60
2023-04-29T04:56:41.358Z,10.77
2023-04-29T04:59:09.247Z,10.77
2023-04-29T05:01:37.410Z,10.72
2023-04-29T05:04:05.480Z,10.71
2023-04-29T05:06:33.258Z,10.82
2023-04-29T05:09:02.737Z,10.90
2023-04-29T05:11:30.504Z,10.97
2023-04-29T05:13:58.302Z,10.98
2023-04-29T05:16:26.280Z,11.09
2023-04-29T05:18:54.210Z,11.10
2023-04-29T05:21:21.912Z,11.22
2023-04-29T05:23:49.996Z,11.34
2023-04-29T05:26:19.074Z,11.37
2023-04-29T05:28:46.753Z,11.29
2023-04-29T05:31:14.504Z,11.43
2023-04-29T05:33:42.290Z,11.83
2023-04-29T05:36:10.380Z,12.26
2023-04-29T05:38:38.289Z,12.36
2023-04-29T05:41:06.306Z,12.59
2023-04-29T05:43:36.822Z,12.94
2023-04-29T05:46:04.780Z,13.16
2023-04-29T05:48:32.587Z,13.20
2023-04-29T05:51:00.285Z,13.28
2023-04-29T05:53:27.950Z,13.52
2023-04-29T05:55:55.759Z,13.66
2023-04-29T05:58:23.531Z,13.94
2023-04-29T06:00:52.631Z,13.99
2023-04-29T06:03:20.462Z,14.16
2023-04-29T06:05:48.464Z,14.32
2023-04-29T06:08:16.650Z,14.53
2023-04-29T06:10:44.318Z,15.06
2023-04-29T06:13:12.031Z,14.88
2023-04-29T06:15:40.080Z,15.02
2023-04-29T06:18:09.203Z,15.05
2023-04-29T06:20:37.675Z,14.94
2023-04-29T06:23:05.971Z,15.04
2023-04-29T06:25:34.069Z,14.90
2023-04-29T06:28:02.131Z,14.58
2023-04-29T06:30:30.012Z,15.42
2023-04-29T06:32:58.022Z,15.37
2023-04-29T06:35:27.185Z,15.36
2023-04-29T06:37:56.614Z,15.69
2023-04-29T06:40:24.310Z,16.66
2023-04-29T06:42:52.628Z,16.76
2023-04-29T06:45:20.312Z,17.60
2023-04-29T06:47:48.064Z,17.61
2023-04-29T06:50:15.951Z,17.01
2023-04-29T06:52:45.051Z,17.18
2023-04-29T06:55:13.071Z,16.98
2023-04-29T06:57:40.826Z,16.90
2023-04-29T07:00:09.681Z,16.50
2023-04-29T07:02:39.014Z,17.22
2023-04-29T07:05:07.975Z,17.06
2023-04-29T07:07:35.648Z,17.09
2023-04-29T07:10:05.056Z,16.62
2023-04-29T07:12:32.742Z,16.30
2023-04-29T07:15:01.720Z,15.96
2023-04-29T07:17:31.041Z,15.37
2023-04-29T07:19:58.963Z,15.35
2023-04-29T07:22:26.884Z,15.02
2023-04-29T07:24:55.407Z,15.52
2023-04-29T07:27:24.994Z,15.45
2023-04-29T07:29:52.724Z,15.38
2023-04-29T07:32:20.389Z,15.22
2023-04-29T07:34:48.765Z,14.86
2023-04-29T07:37:16.668Z,14.74
2023-04-29T07:39:44.398Z,14.55
2023-04-29T07:42:12.155Z,14.14
2023-04-29T07:44:41.298Z,14.20
2023-04-29T07:47:09.274Z,13.76
2023-04-29T07:49:37.031Z,13.87
2023-04-29T07:52:06.078Z,13.45
2023-04-29T07:54:33.836Z,13.40
2023-04-29T07:57:03.501Z,13.42
2023-04-29T07:59:31.344Z,13.72
2023-04-29T08:02:00.357Z,13.63
2023-04-29T08:04:28.160Z,13.69
2023-04-29T08:06:55.947Z,13.86
2023-04-29T08:09:23.741Z,13.55
2023-04-29T08:11:51.773Z,13.02
2023-04-29T08:14:19.453Z,12.78
2023-04-29T08:16:47.782Z,12.93
2023-04-29T08:19:16.820Z,12.87
2023-04-29T08:21:44.695Z,12.88
2023-04-29T08:24:12.411Z,13.09
2023-04-29T08:26:41.380Z,13.08
2023-04-29T08:29:09.245Z,13.03
2023-04-29T08:31:37.367Z,12.82
2023-04-29T08:34:05.292Z,12.64
2023-04-29T08:36:37.000Z,12.76
2023-04-29T08:39:04.815Z,12.55
2023-04-29T08:41:33.012Z,12.71
2023-04-29T08:44:00.916Z,12.82
2023-04-29T08:46:29.343Z,12.77
2023-04-29T08:48:58.206Z,12.71
2023-04-29T08:51:26.610Z,12.63
2023-04-29T08:53:57.577Z,12.86
2023-04-29T08:56:27.837Z,12.96
2023-04-29T08:58:58.875Z,12.83
2023-04-29T09:01:28.487Z,13.28
2023-04-29T09:04:08.623Z,13.35
2023-04-29T09:06:36.498Z,13.22
2023-04-29T09:09:06.513Z,13.33
2023-04-29T09:11:35.727Z,13.30
2023-04-29T09:14:04.699Z,13.29
2023-04-29T09:16:32.518Z,13.22
2023-04-29T09:19:00.258Z,13.42
2023-04-29T09:21:29.140Z,13.82
2023-04-29T09:23:58.660Z,13.88
2023-04-29T09:26:28.771Z,13.92
2023-04-29T09:29:09.824Z,13.75
2023-04-29T09:31:39.066Z,13.77
2023-04-29T09:34:07.119Z,13.73
2023-04-29T09:36:44.927Z,13.96
2023-04-29T09:39:16.262Z,14.04
2023-04-29T09:42:02.774Z,14.36
2023-04-29T09:44:34.523Z,14.77
2023-04-29T09:47:04.031Z,14.60
2023-04-29T09:49:35.860Z,14.41
2023-04-29T09:52:04.979Z,14.38
2023-04-29T09:54:34.476Z,14.44
2023-04-29T09:57:05.911Z,14.62
2023-04-29T09:59:36.015Z,14.46
2023-04-29T10:02:11.560Z,14.71
2023-04-29T10:04:42.458Z,14.62
2023-04-29T10:07:11.090Z,14.69
2023-04-29T10:09:40.889Z,14.56
2023-04-29T10:12:11.022Z,14.46
2023-04-29T10:14:45.112Z,14.75
2023-04-29T10:17:17.947Z,14.42
2023-04-29T10:19:52.230Z,14.27
2023-04-29T10:22:26.947Z,14.28
2023-04-29T10:24:56.447Z,14.41
2023-04-29T10:27:26.528Z,14.46
2023-04-29T10:29:55.971Z,14.16
2023-04-29T10:32:24.805Z,14.69
2023-04-29T10:34:54.998Z,14.79
2023-04-29T10:37:24.007Z,14.71
2023-04-29T10:39:56.560Z,15.03
2023-04-29T10:42:44.309Z,14.53
2023-04-29T10:45:23.256Z,14.61
2023-04-29T10:48:10.142Z,14.89
2023-04-29T10:51:00.749Z,14.90
2023-04-29T10:53:29.538Z,14.77
2023-04-29T10:56:00.350Z,14.51
2023-04-29T10:58:40.541Z,15.11
2023-04-29T11:01:10.561Z,15.37
2023-04-29T11:03:50.332Z,14.36
2023-04-29T11:06:18.223Z,15.20
2023-04-29T11:08:45.872Z,14.79
2023-04-29T11:11:15.534Z,14.25
2023-04-29T11:13:47.863Z,14.35
2023-04-29T11:16:15.705Z,14.00
2023-04-29T11:19:07.872Z,14.01
2023-04-29T11:21:36.290Z,14.34
2023-04-29T11:24:06.324Z,14.28
2023-04-29T11:26:35.614Z,14.30
2023-04-29T11:29:06.182Z,14.12
2023-04-29T11:31:34.799Z,14.32
2023-04-29T11:34:04.889Z,14.10
2023-04-29T11:36:33.123Z,14.27
2023-04-29T11:39:01.883Z,13.96
2023-04-29T11:41:29.726Z,14.05
2023-04-29T11:43:58.375Z,14.24
2023-04-29T11:46:28.292Z,13.76
2023-04-29T11:48:58.875Z,14.33
2023-04-29T11:51:26.961Z,14.31
2023-04-29T11:53:54.634Z,14.15
2023-04-29T11:56:26.501Z,14.23
2023-04-29T11:58:57.698Z,14.29
2023-04-29T12:01:27.853Z,14.00
2023-04-29T12:03:59.849Z,14.26
2023-04-29T12:06:29.862Z,14.36
2023-04-29T12:09:00.409Z,14.57
2023-04-29T12:11:28.896Z,14.39
2023-04-29T12:13:57.141Z,14.11
2023-04-29T12:16:25.775Z,14.07
2023-04-29T12:18:55.279Z,14.23
2023-04-29T12:21:23.107Z,14.33
2023-04-29T12:23:52.488Z,14.02
2023-04-29T12:26:21.051Z,13.99
2023-04-29T12:28:50.493Z,14.24
2023-04-29T12:31:18.260Z,14.28
2023-04-29T12:33:45.925Z,14.42
2023-04-29T12:36:20.110Z,14.57
2023-04-29T12:38:48.869Z,14.86
2023-04-29T12:41:17.424Z,14.55
2023-04-29T12:43:45.479Z,14.33
2023-04-29T12:46:14.072Z,14.46
2023-04-29T12:48:43.608Z,14.49
2023-04-29T12:51:11.907Z,14.08
2023-04-29T12:53:41.088Z,14.05
2023-04-29T12:56:09.259Z,14.35
2023-04-29T12:58:37.168Z,14.28
2023-04-29T13:01:05.033Z,14.39
2023-04-29T13:03:34.288Z,14.16
2023-04-29T13:06:02.618Z,14.56
2023-04-29T13:08:30.276Z,14.47
2023-04-29T13:10:59.284Z,14.41
2023-04-29T13:13:27.570Z,14.70
2023-04-29T13:15:55.372Z,14.82
2023-04-29T13:18:23.256Z,15.23
2023-04-29T13:20:53.002Z,14.32
2023-04-29T13:23:21.064Z,14.43
2023-04-29T13:25:49.075Z,14.41
2023-04-29T13:28:18.183Z,14.67
2023-04-29T13:30:45.914Z,14.70
2023-04-29T13:33:13.807Z,14.61
2023-04-29T13:35:42.019Z,14.49
2023-04-29T13:38:10.324Z,14.29
2023-04-29T13:40:41.695Z,14.48
2023-04-29T13:43:15.026Z,14.66
2023-04-29T13:45:48.428Z,14.69
2023-04-29T13:48:44.228Z,14.96
2023-04-29T13:51:48.058Z,14.97
2023-04-29T14:03:58.665Z,14.84
2023-04-29T14:06:26.536Z,14.70
2023-04-29T14:08:54.209Z,14.76
2023-04-29T14:11:21.848Z,14.80
2023-04-29T14:13:49.532Z,14.98
2023-04-29T14:16:17.899Z,14.91
2023-04-29T14:18:47.044Z,14.92
2023-04-29T14:21:14.853Z,15.06
2023-04-29T14:23:42.467Z,15.24
2023-04-29T14:26:27.165Z,14.96
2023-04-29T14:28:58.265Z,14.94
2023-04-29T14:31:28.098Z,14.82
2023-04-29T14:33:58.384Z,14.94
2023-04-29T14:36:28.123Z,14.96
2023-04-29T14:38:55.851Z,15.44
2023-04-29T14:41:23.519Z,15.82
2023-04-29T14:43:51.180Z,15.78
2023-04-29T14:46:19.083Z,15.96
2023-04-29T14:48:46.892Z,16.01
2023-04-29T14:51:15.944Z,16.23
2023-04-29T14:53:43.994Z,16.45
2023-04-29T14:56:11.744Z,16.34
2023-04-29T14:58:39.422Z,15.87
2023-04-29T15:01:07.424Z,16.29
2023-04-29T15:03:43.513Z,16.11
2023-04-29T15:06:12.439Z,15.69
2023-04-29T15:08:41.756Z,16.33
2023-04-29T15:11:09.582Z,16.08
2023-04-29T15:13:37.570Z,16.27
2023-04-29T15:16:07.351Z,16.25
2023-04-29T15:18:35.426Z,15.96
2023-04-29T15:21:04.309Z,15.71
2023-04-29T15:23:33.008Z,15.67
2023-04-29T15:26:02.051Z,15.59
2023-04-29T15:28:29.698Z,15.61
2023-04-29T15:30:59.781Z,15.79
2023-04-29T15:33:27.407Z,15.56
2023-04-29T15:35:57.021Z,15.80
2023-04-29T15:38:24.779Z,15.50
2023-04-29T15:40:56.805Z,15.17
2023-04-29T15:43:26.489Z,15.35
2023-04-29T15:45:54.452Z,15.29
2023-04-29T15:48:22.117Z,15.36
2023-04-29T15:50:49.737Z,15.22
2023-04-29T15:53:17.397Z,15.17
2023-04-29T15:55:45.247Z,15.18
2023-04-29T15:58:12.944Z,15.19
2023-04-29T16:00:41.964Z,15.17
2023-04-29T16:03:09.806Z,15.16
2023-04-29T16:05:38.629Z,15.51
2023-04-29T16:08:06.813Z,15.48
2023-04-29T16:10:34.792Z,15.15
2023-04-29T16:13:02.597Z,15.16
2023-04-29T16:15:30.981Z,15.04
2023-04-29T16:18:01.365Z,14.67
2023-04-29T16:20:29.310Z,14.86
2023-04-29T16:22:57.124Z,14.85
2023-04-29T16:25:24.780Z,15.01
2023-04-29T16:27:52.497Z,14.66
2023-04-29T16:30:20.178Z,14.84
2023-04-29T16:32:48.015Z,14.73
2023-04-29T16:35:17.412Z,14.75
2023-04-29T16:37:45.126Z,14.93
2023-04-29T16:40:13.751Z,14.67
2023-04-29T16:42:41.488Z,14.43
2023-04-29T16:45:10.669Z,14.47
2023-04-29T16:47:40.713Z,14.55
2023-04-29T16:50:09.891Z,14.64
2023-04-29T16:52:38.981Z,14.76
2023-04-29T16:55:08.609Z,15.01
2023-04-29T16:57:36.236Z,14.87
2023-04-29T17:00:04.188Z,14.90
2023-04-29T17:02:31.900Z,14.93
2023-04-29T17:04:59.653Z,15.24
2023-04-29T17:07:27.329Z,14.97
2023-04-29T17:09:56.594Z,14.74
2023-04-29T17:12:24.390Z,14.81
2023-04-29T17:14:52.120Z,14.77
2023-04-29T17:17:19.834Z,14.50
2023-04-29T17:19:49.899Z,14.62
2023-04-29T17:22:18.083Z,14.74
2023-04-29T17:24:46.462Z,14.61
2023-04-29T17:27:15.713Z,14.43
2023-04-29T17:29:43.562Z,14.39
2023-04-29T17:32:13.357Z,14.42
2023-04-29T17:34:43.124Z,14.45
2023-04-29T17:37:11.309Z,14.54
2023-04-29T17:39:39.154Z,13.97
2023-04-29T17:42:07.547Z,14.19
2023-04-29T17:44:38.052Z,14.09
2023-04-29T17:47:06.396Z,13.74
2023-04-29T17:49:34.142Z,13.68
2023-04-29T17:52:04.200Z,13.76
2023-04-29T17:54:32.572Z,13.72
2023-04-29T17:57:02.103Z,13.40
2023-04-29T17:59:30.730Z,13.87
2023-04-29T18:02:00.185Z,14.01
2023-04-29T18:04:27.949Z,14.01
2023-04-29T18:06:55.698Z,13.64
2023-04-29T18:09:23.363Z,13.64
2023-04-29T18:11:51.152Z,13.31
2023-04-29T18:14:18.933Z,13.73
2023-04-29T18:16:46.838Z,13.45
2023-04-29T18:19:16.182Z,13.23
2023-04-29T18:21:44.076Z,13.42
2023-04-29T18:24:11.911Z,13.21
2023-04-29T18:26:39.722Z,13.08
2023-04-29T18:29:07.533Z,13.26
2023-04-29T18:31:35.509Z,13.55
2023-04-29T18:34:03.381Z,13.12
2023-04-29T18:36:33.377Z,13.18
2023-04-29T18:39:01.036Z,12.97
2023-04-29T18:41:28.715Z,12.95
2023-04-29T18:43:56.502Z,13.07
2023-04-29T18:46:24.479Z,12.93
2023-04-29T18:48:52.395Z,13.11
2023-04-29T18:51:22.232Z,12.90
2023-04-29T18:53:51.521Z,12.81
2023-04-29T18:56:19.301Z,12.74
2023-04-29T18:58:47.090Z,12.78
2023-04-29T19:01:15.000Z,12.84
2023-04-29T19:03:42.856Z,12.76
2023-04-29T19:06:10.658Z,12.89
2023-04-29T19:08:38.798Z,12.85
2023-04-29T19:11:08.087Z,12.81
2023-04-29T19:13:36.024Z,12.80
2023-04-29T19:16:03.766Z,12.62
2023-04-29T19:18:31.799Z,12.88
2023-04-29T19:20:59.777Z,12.73
2023-04-29T19:23:27.529Z,12.66
2023-04-29T19:25:55.505Z,12.71
2023-04-29T19:28:24.725Z,12.78
2023-04-29T19:30:52.709Z,12.71
2023-04-29T19:33:20.546Z,12.71
2023-04-29T19:35:48.405Z,12.79
2023-04-29T19:38:16.306Z,12.70
2023-04-29T19:40:44.370Z,12.70
2023-04-29T19:43:13.277Z,12.70
2023-04-29T19:45:42.270Z,12.61
2023-04-29T19:48:09.962Z,12.54
2023-04-29T19:50:37.599Z,12.74
2023-04-29T19:53:05.321Z,12.85
2023-04-29T19:55:33.776Z,12.75
2023-04-29T19:58:01.393Z,12.64
2023-04-29T20:00:29.131Z,12.77
2023-04-29T20:02:58.209Z,12.67
2023-04-29T20:05:26.137Z,12.73
2023-04-29T20:07:53.823Z,12.64
2023-04-29T20:10:22.011Z,12.68
2023-04-29T20:12:49.840Z,12.66
2023-04-29T20:15:17.821Z,12.59
2023-04-29T20:17:45.544Z,12.49
2023-04-29T20:20:14.665Z,12.61
2023-04-29T20:22:42.288Z,12.60
2023-04-29T20:25:10.706Z,12.52
2023-04-29T20:27:38.342Z,12.59
2023-04-29T20:30:08.759Z,12.43
2023-04-29T20:32:37.163Z,12.62
2023-04-29T20:35:05.670Z,12.56
2023-04-29T20:37:34.672Z,12.46
2023-04-29T20:40:02.334Z,12.49
2023-04-29T20:42:30.121Z,12.31
2023-04-29T20:44:57.987Z,12.37
2023-04-29T20:47:25.695Z,12.28
2023-04-29T20:49:53.421Z,12.36
2023-04-29T20:52:21.395Z,12.43
2023-04-29T20:54:51.808Z,12.51
2023-04-29T20:57:19.580Z,12.49
2023-04-29T20:59:47.331Z,12.55
2023-04-29T21:02:15.533Z,12.52
2023-04-29T21:04:43.159Z,12.36
2023-04-29T21:07:10.896Z,12.34
2023-04-29T21:09:38.560Z,12.45
2023-04-29T21:12:08.509Z,12.39
2023-04-29T21:14:37.417Z,12.50
2023-04-29T21:17:05.106Z,12.23
2023-04-29T21:19:32.761Z,12.30
2023-04-29T21:22:01.321Z,12.34
2023-04-29T21:24:30.859Z,12.49
2023-04-29T21:26:58.464Z,12.40
2023-04-29T21:29:27.538Z,12.29
2023-04-29T21:31:55.281Z,12.37
2023-04-29T21:34:23.060Z,12.16
2023-04-29T21:36:50.743Z,12.30
2023-04-29T21:39:18.733Z,12.21
2023-04-29T21:41:47.606Z,12.10
2023-04-29T21:44:15.409Z,12.22
2023-04-29T21:46:45.226Z,12.20
2023-04-29T21:49:12.960Z,12.21
2023-04-29T21:51:40.796Z,12.10
2023-04-29T21:54:08.630Z,12.19
2023-04-29T21:56:36.684Z,12.25
2023-04-29T21:59:04.439Z,12.38
2023-04-29T22:01:48.506Z,12.02
2023-04-29T22:04:17.671Z,12.14
2023-04-29T22:06:45.515Z,12.25
2023-04-29T22:09:13.433Z,12.19
2023-04-29T22:11:41.154Z,12.13
2023-04-29T22:14:08.884Z,12.20
2023-04-29T22:16:36.762Z,12.15
2023-04-29T22:19:04.537Z,12.14
2023-04-29T22:21:33.552Z,12.08
2023-04-29T22:24:01.149Z,12.23
2023-04-29T22:26:28.919Z,12.12
2023-04-29T22:28:56.968Z,12.00
2023-04-29T22:31:24.691Z,12.14
2023-04-29T22:33:52.349Z,12.16
2023-04-29T22:36:20.230Z,11.93
2023-04-29T22:38:49.180Z,12.07
2023-04-29T22:41:16.916Z,11.96
2023-04-29T22:43:44.559Z,12.10
2023-04-29T22:46:12.293Z,12.06
2023-04-29T22:48:39.980Z,12.00
2023-04-29T22:51:07.625Z,12.03
2023-04-29T22:53:35.314Z,11.96
2023-04-29T22:56:04.723Z,12.00
2023-04-29T22:58:33.652Z,12.01
2023-04-29T23:01:01.990Z,12.00
2023-04-29T23:03:29.768Z,12.13
2023-04-29T23:05:59.483Z,12.06
2023-04-29T23:08:27.694Z,12.05
2023-04-29T23:10:55.710Z,11.95
2023-04-29T23:13:24.865Z,11.82
2023-04-29T23:15:53.209Z,11.94
2023-04-29T23:18:20.906Z,12.03
2023-04-29T23:20:48.631Z,12.04
2023-04-29T23:23:16.283Z,11.99
2023-04-29T23:25:45.262Z,12.14
2023-04-29T23:28:13.034Z,11.91
2023-04-29T23:30:42.236Z,12.14
2023-04-29T23:33:10.174Z,11.98
2023-04-29T23:35:37.855Z,11.98
2023-04-29T23:38:05.681Z,12.28
2023-04-29T23:40:34.125Z,12.25
2023-04-29T23:43:01.852Z,12.36
2023-04-29T23:45:30.054Z,12.30
2023-04-29T23:47:59.144Z,12.33
2023-04-29T23:50:29.242Z,12.11
2023-04-29T23:52:56.910Z,12.10
2023-04-29T23:55:24.631Z,12.13
2023-04-29T23:57:52.373Z,12.30
